sensor_id;sensor_type;location;lat;lon;timestamp;pressure;altitude;pressure_sealevel;temperature;humidity
39105;BME280;46464;51.154;13.812;2022-12-07T00:01:18;99043.09;;;1.38;100.00
39105;BME280;46464;51.154;13.812;2022-12-07T00:03:47;99032.53;;;1.36;100.00
39105;BME280;46464;51.154;13.812;2022-12-07T00:06:16;99032.53;;;1.36;100.00
39105;BME280;46464;51.154;13.812;2022-12-07T00:08:43;99027.25;;;1.35;100.00
39105;BME280;46464;51.154;13.812;2022-12-07T00:11:12;99022.84;;;1.34;100.00
39105;BME280;46464;51.154;13.812;2022-12-07T00:13:39;99031.66;;;1.36;100.00
39105;BME280;46464;51.154;13.812;2022-12-07T00:16:17;99029.94;;;1.33;100.00
39105;BME280;46464;51.154;13.812;2022-12-07T00:18:45;99033.47;;;1.32;100.00
39105;BME280;46464;51.154;13.812;2022-12-07T00:21:13;99027.31;;;1.32;100.00
39105;BME280;46464;51.154;13.812;2022-12-07T00:23:41;99034.38;;;1.31;100.00
39105;BME280;46464;51.154;13.812;2022-12-07T00:28:47;99022.03;;;1.30;100.00
39105;BME280;46464;51.154;13.812;2022-12-07T00:31:15;99017.66;;;1.29;100.00
39105;BME280;46464;51.154;13.812;2022-12-07T00:33:42;99018.56;;;1.28;100.00
39105;BME280;46464;51.154;13.812;2022-12-07T00:36:10;99014.09;;;1.30;100.00
39105;BME280;46464;51.154;13.812;2022-12-07T00:38:37;99016.72;;;1.30;100.00
39105;BME280;46464;51.154;13.812;2022-12-07T00:41:16;99015.00;;;1.29;100.00
39105;BME280;46464;51.154;13.812;2022-12-07T00:43:44;99021.22;;;1.25;100.00
39105;BME280;46464;51.154;13.812;2022-12-07T00:46:12;99013.31;;;1.23;100.00
39105;BME280;46464;51.154;13.812;2022-12-07T00:48:40;99016.81;;;1.24;100.00
39105;BME280;46464;51.154;13.812;2022-12-07T00:51:07;99014.19;;;1.24;100.00
39105;BME280;46464;51.154;13.812;2022-12-07T00:53:35;99008.88;;;1.24;100.00
39105;BME280;46464;51.154;13.812;2022-12-07T00:56:08;99008.03;;;1.23;100.00
39105;BME280;46464;51.154;13.812;2022-12-07T00:58:35;99008.91;;;1.22;100.00
39105;BME280;46464;51.154;13.812;2022-12-07T01:01:03;98997.44;;;1.23;100.00
39105;BME280;46464;51.154;13.812;2022-12-07T01:03:30;99006.25;;;1.25;100.00
39105;BME280;46464;51.154;13.812;2022-12-07T01:05:57;99001.84;;;1.24;100.00
39105;BME280;46464;51.154;13.812;2022-12-07T01:08:25;99007.16;;;1.23;100.00
39105;BME280;46464;51.154;13.812;2022-12-07T01:11:00;99011.59;;;1.21;100.00
39105;BME280;46464;51.154;13.812;2022-12-07T01:13:27;99008.91;;;1.22;100.00
39105;BME280;46464;51.154;13.812;2022-12-07T01:15:57;99003.63;;;1.22;100.00
39105;BME280;46464;51.154;13.812;2022-12-07T01:18:31;99005.41;;;1.22;100.00
39105;BME280;46464;51.154;13.812;2022-12-07T01:21:21;99010.66;;;1.25;100.00
39105;BME280;46464;51.154;13.812;2022-12-07T01:23:50;99006.19;;;1.28;100.00
39105;BME280;46464;51.154;13.812;2022-12-07T01:26:20;99000.97;;;1.25;100.00
39105;BME280;46464;51.154;13.812;2022-12-07T01:28:47;98988.56;;;1.27;100.00
39105;BME280;46464;51.154;13.812;2022-12-07T01:31:16;98991.22;;;1.26;100.00
39105;BME280;46464;51.154;13.812;2022-12-07T01:33:46;98991.22;;;1.26;100.00
39105;BME280;46464;51.154;13.812;2022-12-07T01:38:42;99004.44;;;1.27;100.00
39105;BME280;46464;51.154;13.812;2022-12-07T01:41:09;99004.47;;;1.26;100.00
39105;BME280;46464;51.154;13.812;2022-12-07T01:43:36;99001.84;;;1.24;100.00
39105;BME280;46464;51.154;13.812;2022-12-07T01:46:03;99003.50;;;1.30;100.00
39105;BME280;46464;51.154;13.812;2022-12-07T01:48:34;98996.50;;;1.29;100.00
39105;BME280;46464;51.154;13.812;2022-12-07T01:51:05;99002.69;;;1.28;100.00
39105;BME280;46464;51.154;13.812;2022-12-07T01:53:36;98994.72;;;1.29;100.00
39105;BME280;46464;51.154;13.812;2022-12-07T01:56:05;99006.16;;;1.32;100.00
39105;BME280;46464;51.154;13.812;2022-12-07T01:58:34;98995.56;;;1.30;100.00
39105;BME280;46464;51.154;13.812;2022-12-07T02:01:00;98998.22;;;1.32;100.00
39105;BME280;46464;51.154;13.812;2022-12-07T02:03:32;98988.50;;;1.32;100.00
39105;BME280;46464;51.154;13.812;2022-12-07T02:06:00;98996.41;;;1.34;100.00
39105;BME280;46464;51.154;13.812;2022-12-07T02:08:27;98996.41;;;1.34;100.00
39105;BME280;46464;51.154;13.812;2022-12-07T02:10:54;98997.34;;;1.29;100.00
39105;BME280;46464;51.154;13.812;2022-12-07T02:13:25;98988.53;;;1.31;100.00
39105;BME280;46464;51.154;13.812;2022-12-07T02:15:59;98990.25;;;1.33;100.00
39105;BME280;46464;51.154;13.812;2022-12-07T02:21:46;98989.44;;;1.28;100.00
39105;BME280;46464;51.154;13.812;2022-12-07T02:27:58;98990.38;;;1.24;100.00
39105;BME280;46464;51.154;13.812;2022-12-07T02:30:08;98987.81;;;1.18;100.00
39105;BME280;46464;51.154;13.812;2022-12-07T02:35:18;98982.66;;;1.10;100.00
39105;BME280;46464;51.154;13.812;2022-12-07T02:41:02;98976.44;;;1.12;100.00
39105;BME280;46464;51.154;13.812;2022-12-07T02:43:34;98971.25;;;1.06;100.00
39105;BME280;46464;51.154;13.812;2022-12-07T02:46:07;98974.72;;;1.10;100.00
39105;BME280;46464;51.154;13.812;2022-12-07T02:48:37;98972.97;;;1.10;100.00
39105;BME280;46464;51.154;13.812;2022-12-07T02:51:05;98968.56;;;1.09;100.00
39105;BME280;46464;51.154;13.812;2022-12-07T02:53:42;98968.56;;;1.08;100.00
39105;BME280;46464;51.154;13.812;2022-12-07T03:01:52;98956.28;;;1.04;100.00
39105;BME280;46464;51.154;13.812;2022-12-07T03:07:43;98953.72;;;1.01;100.00
39105;BME280;46464;51.154;13.812;2022-12-07T03:18:14;98933.78;;;0.76;100.00
39105;BME280;46464;51.154;13.812;2022-12-07T03:20:43;98934.72;;;0.71;100.00
39105;BME280;46464;51.154;13.812;2022-12-07T03:23:12;98936.59;;;0.64;100.00
39105;BME280;46464;51.154;13.812;2022-12-07T03:25:45;98942.81;;;0.61;100.00
39105;BME280;46464;51.154;13.812;2022-12-07T03:28:16;98941.13;;;0.57;100.00
39105;BME280;46464;51.154;13.812;2022-12-07T03:30:52;98935.91;;;0.51;100.00
39105;BME280;46464;51.154;13.812;2022-12-07T03:33:36;98939.50;;;0.45;100.00
39105;BME280;46464;51.154;13.812;2022-12-07T03:36:07;98932.50;;;0.41;100.00
39105;BME280;46464;51.154;13.812;2022-12-07T03:39:22;98924.59;;;0.41;100.00
39105;BME280;46464;51.154;13.812;2022-12-07T03:41:52;98928.13;;;0.37;100.00
39105;BME280;46464;51.154;13.812;2022-12-07T03:44:19;98920.31;;;0.29;100.00
39105;BME280;46464;51.154;13.812;2022-12-07T03:47:03;98920.28;;;0.31;100.00
39105;BME280;46464;51.154;13.812;2022-12-07T03:49:40;98924.78;;;0.27;100.00
39105;BME280;46464;51.154;13.812;2022-12-07T03:52:41;98921.22;;;0.28;100.00
39105;BME280;46464;51.154;13.812;2022-12-07T03:55:18;98927.44;;;0.24;100.00
39105;BME280;46464;51.154;13.812;2022-12-07T03:57:50;98932.69;;;0.27;100.00
39105;BME280;46464;51.154;13.812;2022-12-07T04:00:18;98925.72;;;0.22;100.00
39105;BME280;46464;51.154;13.812;2022-12-07T04:02:45;98923.00;;;0.25;100.00
39105;BME280;46464;51.154;13.812;2022-12-07T04:05:12;98921.28;;;0.25;100.00
39105;BME280;46464;51.154;13.812;2022-12-07T04:07:39;98921.28;;;0.22;100.00
39105;BME280;46464;51.154;13.812;2022-12-07T04:10:07;98905.41;;;0.25;100.00
39105;BME280;46464;51.154;13.812;2022-12-07T04:12:33;98909.78;;;0.28;100.00
39105;BME280;46464;51.154;13.812;2022-12-07T04:15:00;98902.78;;;0.25;100.00
39105;BME280;46464;51.154;13.812;2022-12-07T04:17:26;98901.88;;;0.26;100.00
39105;BME280;46464;51.154;13.812;2022-12-07T04:19:53;98896.59;;;0.25;100.00
39105;BME280;46464;51.154;13.812;2022-12-07T04:22:20;98890.44;;;0.24;100.00
39105;BME280;46464;51.154;13.812;2022-12-07T04:24:46;98883.41;;;0.23;100.00
39105;BME280;46464;51.154;13.812;2022-12-07T04:27:13;98899.25;;;0.26;100.00
39105;BME280;46464;51.154;13.812;2022-12-07T04:29:39;98886.09;;;0.22;100.00
39105;BME280;46464;51.154;13.812;2022-12-07T04:32:06;98889.63;;;0.21;100.00
39105;BME280;46464;51.154;13.812;2022-12-07T04:34:33;98887.88;;;0.18;100.00
39105;BME280;46464;51.154;13.812;2022-12-07T04:36:59;98883.56;;;0.11;100.00
39105;BME280;46464;51.154;13.812;2022-12-07T04:39:28;98876.53;;;0.11;100.00
39105;BME280;46464;51.154;13.812;2022-12-07T04:41:56;98873.03;;;0.09;100.00
39105;BME280;46464;51.154;13.812;2022-12-07T04:44:23;98876.53;;;0.13;100.00
39105;BME280;46464;51.154;13.812;2022-12-07T04:46:51;98874.81;;;0.07;100.00
39105;BME280;46464;51.154;13.812;2022-12-07T04:49:19;98865.13;;;0.06;100.00
39105;BME280;46464;51.154;13.812;2022-12-07T04:51:46;98861.63;;;0.07;100.00
39105;BME280;46464;51.154;13.812;2022-12-07T04:54:14;98867.78;;;0.08;100.00
39105;BME280;46464;51.154;13.812;2022-12-07T04:56:42;98867.78;;;0.06;100.00
39105;BME280;46464;51.154;13.812;2022-12-07T04:59:11;98864.28;;;0.06;100.00
39105;BME280;46464;51.154;13.812;2022-12-07T05:01:38;98850.22;;;0.04;100.00
39105;BME280;46464;51.154;13.812;2022-12-07T05:04:05;98844.94;;;0.05;100.00
39105;BME280;46464;51.154;13.812;2022-12-07T05:06:32;98844.94;;;0.05;100.00
39105;BME280;46464;51.154;13.812;2022-12-07T05:08:58;98839.72;;;-0.01;100.00
39105;BME280;46464;51.154;13.812;2022-12-07T05:11:25;98839.72;;;-0.03;100.00
39105;BME280;46464;51.154;13.812;2022-12-07T05:14:17;98846.78;;;0.00;100.00
39105;BME280;46464;51.154;13.812;2022-12-07T05:16:45;98845.81;;;0.04;100.00
39105;BME280;46464;51.154;13.812;2022-12-07T05:19:13;98842.28;;;0.05;100.00
39105;BME280;46464;51.154;13.812;2022-12-07T05:21:40;98845.69;;;0.13;100.00
39105;BME280;46464;51.154;13.812;2022-12-07T05:24:08;98838.66;;;0.14;100.00
39105;BME280;46464;51.154;13.812;2022-12-07T05:26:36;98839.59;;;0.08;100.00
39105;BME280;46464;51.154;13.812;2022-12-07T05:29:03;98836.03;;;0.11;100.00
39105;BME280;46464;51.154;13.812;2022-12-07T05:31:30;98838.59;;;0.17;100.00
39105;BME280;46464;51.154;13.812;2022-12-07T05:33:56;98841.22;;;0.17;100.00
39105;BME280;46464;51.154;13.812;2022-12-07T05:36:23;98835.03;;;0.20;100.00
39105;BME280;46464;51.154;13.812;2022-12-07T05:38:50;98835.13;;;0.15;100.00
39105;BME280;46464;51.154;13.812;2022-12-07T05:41:17;98828.84;;;0.21;100.00
39105;BME280;46464;51.154;13.812;2022-12-07T05:44:04;98833.13;;;0.29;100.00
39105;BME280;46464;51.154;13.812;2022-12-07T05:46:31;98828.75;;;0.30;100.00
39105;BME280;46464;51.154;13.812;2022-12-07T05:48:58;98826.94;;;0.32;100.00
39105;BME280;46464;51.154;13.812;2022-12-07T05:51:25;98820.75;;;0.33;100.00
39105;BME280;46464;51.154;13.812;2022-12-07T05:53:51;98810.16;;;0.35;100.00
39105;BME280;46464;51.154;13.812;2022-12-07T05:56:18;98817.16;;;0.37;100.00
39105;BME280;46464;51.154;13.812;2022-12-07T05:58:45;98812.69;;;0.44;100.00
39105;BME280;46464;51.154;13.812;2022-12-07T06:01:30;98812.59;;;0.50;100.00
39105;BME280;46464;51.154;13.812;2022-12-07T06:03:56;98809.88;;;0.53;100.00
39105;BME280;46464;51.154;13.812;2022-12-07T06:06:23;98807.19;;;0.56;100.00
39105;BME280;46464;51.154;13.812;2022-12-07T06:08:50;98808.16;;;0.51;100.00
39105;BME280;46464;51.154;13.812;2022-12-07T06:11:16;98802.75;;;0.60;100.00
39105;BME280;46464;51.154;13.812;2022-12-07T06:14:01;98797.38;;;0.64;100.00
39105;BME280;46464;51.154;13.812;2022-12-07T06:16:28;98796.44;;;0.69;100.00
39105;BME280;46464;51.154;13.812;2022-12-07T06:18:54;98799.00;;;0.73;100.00
39105;BME280;46464;51.154;13.812;2022-12-07T06:21:21;98793.66;;;0.76;100.00
39105;BME280;46464;51.154;13.812;2022-12-07T06:23:47;98788.31;;;0.78;100.00
39105;BME280;46464;51.154;13.812;2022-12-07T06:26:15;98796.25;;;0.78;100.00
39105;BME280;46464;51.154;13.812;2022-12-07T06:28:42;98786.50;;;0.82;100.00
39105;BME280;46464;51.154;13.812;2022-12-07T06:31:09;98790.03;;;0.82;100.00
39105;BME280;46464;51.154;13.812;2022-12-07T06:33:40;98793.50;;;0.84;100.00
39105;BME280;46464;51.154;13.812;2022-12-07T06:36:07;98793.53;;;0.83;100.00
39105;BME280;46464;51.154;13.812;2022-12-07T06:38:34;98796.19;;;0.83;100.00
39105;BME280;46464;51.154;13.812;2022-12-07T06:41:01;98782.94;;;0.86;100.00
39105;BME280;46464;51.154;13.812;2022-12-07T06:43:28;98799.59;;;0.91;100.00
39105;BME280;46464;51.154;13.812;2022-12-07T06:45:54;98803.09;;;0.91;100.00
39105;BME280;46464;51.154;13.812;2022-12-07T06:48:21;98799.44;;;0.99;100.00
39105;BME280;46464;51.154;13.812;2022-12-07T06:50:48;98795.00;;;1.01;100.00
39105;BME280;46464;51.154;13.812;2022-12-07T06:53:21;98798.59;;;0.98;100.00
39105;BME280;46464;51.154;13.812;2022-12-07T06:55:48;98793.22;;;1.01;100.00
39105;BME280;46464;51.154;13.812;2022-12-07T06:58:15;98794.94;;;1.04;100.00
39105;BME280;46464;51.154;13.812;2022-12-07T07:00:42;98799.38;;;1.02;100.00
39105;BME280;46464;51.154;13.812;2022-12-07T07:03:08;98799.38;;;1.02;100.00
39105;BME280;46464;51.154;13.812;2022-12-07T07:05:35;98796.03;;;0.92;100.00
39105;BME280;46464;51.154;13.812;2022-12-07T07:08:02;98804.94;;;0.86;100.00
39105;BME280;46464;51.154;13.812;2022-12-07T07:10:49;98803.38;;;0.76;100.00
39105;BME280;46464;51.154;13.812;2022-12-07T07:13:16;98805.22;;;0.69;100.00
39105;BME280;46464;51.154;13.812;2022-12-07T07:15:43;98796.56;;;0.61;100.00
39105;BME280;46464;51.154;13.812;2022-12-07T07:18:09;98801.97;;;0.52;100.00
39105;BME280;46464;51.154;13.812;2022-12-07T07:20:36;98804.63;;;0.52;100.00
39105;BME280;46464;51.154;13.812;2022-12-07T07:23:03;98802.00;;;0.50;100.00
39105;BME280;46464;51.154;13.812;2022-12-07T07:25:30;98806.44;;;0.48;100.00
39105;BME280;46464;51.154;13.812;2022-12-07T07:27:56;98803.81;;;0.46;100.00
39105;BME280;46464;51.154;13.812;2022-12-07T07:30:24;98804.72;;;0.45;100.00
39105;BME280;46464;51.154;13.812;2022-12-07T07:32:50;98801.16;;;0.48;100.00
39105;BME280;46464;51.154;13.812;2022-12-07T07:35:17;98812.53;;;0.53;100.00
39105;BME280;46464;51.154;13.812;2022-12-07T07:37:44;98810.72;;;0.58;100.00
39105;BME280;46464;51.154;13.812;2022-12-07T07:40:11;98815.00;;;0.64;100.00
39105;BME280;46464;51.154;13.812;2022-12-07T07:42:37;98816.78;;;0.63;100.00
39105;BME280;46464;51.154;13.812;2022-12-07T07:45:04;98804.41;;;0.67;100.00
39105;BME280;46464;51.154;13.812;2022-12-07T07:47:31;98813.16;;;0.69;100.00
39105;BME280;46464;51.154;13.812;2022-12-07T07:49:57;98815.69;;;0.75;100.00
39105;BME280;46464;51.154;13.812;2022-12-07T07:52:24;98818.31;;;0.77;100.00
39105;BME280;46464;51.154;13.812;2022-12-07T07:54:51;98814.78;;;0.78;100.00
39105;BME280;46464;51.154;13.812;2022-12-07T07:57:17;98816.41;;;0.85;100.00
39105;BME280;46464;51.154;13.812;2022-12-07T07:59:44;98811.09;;;0.88;100.00
39105;BME280;46464;51.154;13.812;2022-12-07T08:02:16;98818.09;;;0.91;100.00
39105;BME280;46464;51.154;13.812;2022-12-07T08:04:43;98825.97;;;0.94;100.00
39105;BME280;46464;51.154;13.812;2022-12-07T08:07:11;98824.09;;;0.99;100.00
39105;BME280;46464;51.154;13.812;2022-12-07T08:09:38;98826.66;;;1.07;100.00
39105;BME280;46464;51.154;13.812;2022-12-07T08:12:05;98818.59;;;1.11;100.00
39105;BME280;46464;51.154;13.812;2022-12-07T08:14:32;98828.28;;;1.12;100.00
39105;BME280;46464;51.154;13.812;2022-12-07T08:16:59;98822.06;;;1.15;100.00
39105;BME280;46464;51.154;13.812;2022-12-07T08:19:25;98813.31;;;1.13;100.00
39105;BME280;46464;51.154;13.812;2022-12-07T08:21:52;98814.13;;;1.17;100.00
39105;BME280;46464;51.154;13.812;2022-12-07T08:24:19;98815.81;;;1.21;100.00
39105;BME280;46464;51.154;13.812;2022-12-07T08:26:45;98806.97;;;1.20;100.00
39105;BME280;46464;51.154;13.812;2022-12-07T08:29:11;98809.53;;;1.25;100.00
39105;BME280;46464;51.154;13.812;2022-12-07T08:31:38;98810.44;;;1.25;100.00
39105;BME280;46464;51.154;13.812;2022-12-07T08:34:05;98810.38;;;1.28;100.00
39105;BME280;46464;51.154;13.812;2022-12-07T08:36:31;98812.94;;;1.33;100.00
39105;BME280;46464;51.154;13.812;2022-12-07T08:38:58;98807.56;;;1.38;100.00
39105;BME280;46464;51.154;13.812;2022-12-07T08:41:44;98811.81;;;1.45;100.00
39105;BME280;46464;51.154;13.812;2022-12-07T08:44:11;98822.41;;;1.45;100.00
39105;BME280;46464;51.154;13.812;2022-12-07T08:46:45;98815.28;;;1.49;100.00
39105;BME280;46464;51.154;13.812;2022-12-07T08:49:31;98821.38;;;1.52;100.00
39105;BME280;46464;51.154;13.812;2022-12-07T08:51:59;98816.03;;;1.54;100.00
39105;BME280;46464;51.154;13.812;2022-12-07T08:54:26;98819.53;;;1.56;100.00
39105;BME280;46464;51.154;13.812;2022-12-07T08:56:54;98822.16;;;1.59;100.00
39105;BME280;46464;51.154;13.812;2022-12-07T08:59:25;98817.63;;;1.64;100.00
39105;BME280;46464;51.154;13.812;2022-12-07T09:01:52;98824.56;;;1.70;100.00
39105;BME280;46464;51.154;13.812;2022-12-07T09:04:19;98824.47;;;1.74;100.00
39105;BME280;46464;51.154;13.812;2022-12-07T09:06:47;98824.44;;;1.76;100.00
39105;BME280;46464;51.154;13.812;2022-12-07T09:09:14;98832.25;;;1.82;100.00
39105;BME280;46464;51.154;13.812;2022-12-07T09:11:41;98834.81;;;1.87;100.00
39105;BME280;46464;51.154;13.812;2022-12-07T09:14:07;98828.59;;;1.89;100.00
39105;BME280;46464;51.154;13.812;2022-12-07T09:16:34;98827.69;;;1.90;100.00
39105;BME280;46464;51.154;13.812;2022-12-07T09:19:01;98811.66;;;1.97;100.00
39105;BME280;46464;51.154;13.812;2022-12-07T09:21:27;98825.75;;;1.97;100.00
39105;BME280;46464;51.154;13.812;2022-12-07T09:23:54;98822.97;;;2.03;100.00
39105;BME280;46464;51.154;13.812;2022-12-07T09:26:20;98821.16;;;2.07;100.00
39105;BME280;46464;51.154;13.812;2022-12-07T09:28:47;98821.91;;;2.12;100.00
39105;BME280;46464;51.154;13.812;2022-12-07T09:31:14;98818.41;;;2.12;100.00
39105;BME280;46464;51.154;13.812;2022-12-07T09:33:54;98820.00;;;2.19;100.00
39105;BME280;46464;51.154;13.812;2022-12-07T09:36:21;98821.75;;;2.20;100.00
39105;BME280;46464;51.154;13.812;2022-12-07T09:38:48;98822.47;;;2.26;100.00
39105;BME280;46464;51.154;13.812;2022-12-07T09:41:15;98825.97;;;2.29;100.00
39105;BME280;46464;51.154;13.812;2022-12-07T09:43:42;98825.09;;;2.28;100.00
39105;BME280;46464;51.154;13.812;2022-12-07T09:46:13;98824.81;;;2.42;100.00
39105;BME280;46464;51.154;13.812;2022-12-07T09:48:43;98821.25;;;2.41;100.00
39105;BME280;46464;51.154;13.812;2022-12-07T09:51:21;98819.28;;;2.51;100.00
39105;BME280;46464;51.154;13.812;2022-12-07T09:53:53;98813.78;;;2.59;100.00
39105;BME280;46464;51.154;13.812;2022-12-07T09:56:21;98825.09;;;2.67;100.00
39105;BME280;46464;51.154;13.812;2022-12-07T09:58:49;98811.72;;;2.72;100.00
39105;BME280;46464;51.154;13.812;2022-12-07T10:01:18;98807.22;;;2.74;100.00
39105;BME280;46464;51.154;13.812;2022-12-07T10:04:01;98803.63;;;2.77;100.00
39105;BME280;46464;51.154;13.812;2022-12-07T10:06:28;98806.13;;;2.84;100.00
39105;BME280;46464;51.154;13.812;2022-12-07T10:08:54;98797.19;;;2.87;100.00
39105;BME280;46464;51.154;13.812;2022-12-07T10:11:21;98799.81;;;2.88;100.00
39105;BME280;46464;51.154;13.812;2022-12-07T10:13:53;98792.53;;;2.97;100.00
39105;BME280;46464;51.154;13.812;2022-12-07T10:16:37;98788.97;;;2.98;100.00
39105;BME280;46464;51.154;13.812;2022-12-07T10:19:25;98789.72;;;3.03;100.00
39105;BME280;46464;51.154;13.812;2022-12-07T10:22:09;98792.13;;;3.12;100.00
39105;BME280;46464;51.154;13.812;2022-12-07T10:24:38;98788.56;;;3.13;100.00
39105;BME280;46464;51.154;13.812;2022-12-07T10:27:22;98787.44;;;3.22;100.00
39105;BME280;46464;51.154;13.812;2022-12-07T10:29:53;98788.41;;;3.19;100.00
39105;BME280;46464;51.154;13.812;2022-12-07T10:34:46;98788.41;;;3.19;100.00
39105;BME280;46464;51.154;13.812;2022-12-07T10:37:20;98781.22;;;3.23;100.00
39105;BME280;46464;51.154;13.812;2022-12-07T10:39:54;98779.38;;;3.27;100.00
39105;BME280;46464;51.154;13.812;2022-12-07T10:42:23;98785.53;;;3.27;100.00
39105;BME280;46464;51.154;13.812;2022-12-07T10:47:39;98782.25;;;3.17;100.00
39105;BME280;46464;51.154;13.812;2022-12-07T10:53:54;98787.88;;;3.05;100.00
39105;BME280;46464;51.154;13.812;2022-12-07T10:56:47;98783.47;;;3.05;100.00
39105;BME280;46464;51.154;13.812;2022-12-07T11:02:47;98771.84;;;3.10;100.00
39105;BME280;46464;51.154;13.812;2022-12-07T11:05:36;98772.84;;;3.05;100.00
39105;BME280;46464;51.154;13.812;2022-12-07T11:11:13;98767.75;;;2.98;100.00
39105;BME280;46464;51.154;13.812;2022-12-07T11:21:48;98766.97;;;2.94;100.00
39105;BME280;46464;51.154;13.812;2022-12-07T11:24:34;98759.00;;;2.94;100.00
39105;BME280;46464;51.154;13.812;2022-12-07T11:37:38;98745.97;;;3.18;100.00
39105;BME280;46464;51.154;13.812;2022-12-07T11:42:59;98745.06;;;3.19;100.00
39105;BME280;46464;51.154;13.812;2022-12-07T11:45:34;98746.84;;;3.18;100.00
39105;BME280;46464;51.154;13.812;2022-12-07T11:48:09;98747.91;;;3.11;100.00
39105;BME280;46464;51.154;13.812;2022-12-07T11:50:42;98758.38;;;2.84;100.00
39105;BME280;46464;51.154;13.812;2022-12-07T11:53:10;98751.47;;;2.77;100.00
39105;BME280;46464;51.154;13.812;2022-12-07T12:01:51;98751.84;;;2.62;100.00
39105;BME280;46464;51.154;13.812;2022-12-07T12:07:07;98755.38;;;2.62;100.00
39105;BME280;46464;51.154;13.812;2022-12-07T12:10:05;98748.28;;;2.64;100.00
39105;BME280;46464;51.154;13.812;2022-12-07T12:16:39;98741.75;;;2.76;100.00
39105;BME280;46464;51.154;13.812;2022-12-07T12:21:29;98745.09;;;2.84;100.00
39105;BME280;46464;51.154;13.812;2022-12-07T12:24:10;98735.31;;;2.86;100.00
39105;BME280;46464;51.154;13.812;2022-12-07T12:26:49;98729.94;;;2.89;100.00
39105;BME280;46464;51.154;13.812;2022-12-07T12:29:33;98735.75;;;3.02;100.00
39105;BME280;46464;51.154;13.812;2022-12-07T12:32:22;98731.25;;;3.06;100.00
39105;BME280;46464;51.154;13.812;2022-12-07T12:42:54;98733.66;;;3.15;100.00
39105;BME280;46464;51.154;13.812;2022-12-07T12:45:29;98729.31;;;3.13;100.00
39105;BME280;46464;51.154;13.812;2022-12-07T12:50:38;98727.53;;;3.13;100.00
39105;BME280;46464;51.154;13.812;2022-12-07T13:00:46;98721.25;;;3.16;100.00
39105;BME280;46464;51.154;13.812;2022-12-07T13:03:26;98716.06;;;3.11;100.00
39105;BME280;46464;51.154;13.812;2022-12-07T13:06:31;98713.50;;;3.08;100.00
39105;BME280;46464;51.154;13.812;2022-12-07T13:09:02;98713.50;;;3.08;100.00
39105;BME280;46464;51.154;13.812;2022-12-07T13:11:32;98717.94;;;3.07;100.00
39105;BME280;46464;51.154;13.812;2022-12-07T13:17:03;98712.59;;;3.09;100.00
39105;BME280;46464;51.154;13.812;2022-12-07T13:25:07;98715.28;;;3.07;100.00
39105;BME280;46464;51.154;13.812;2022-12-07T13:27:37;98725.38;;;2.95;100.00
39105;BME280;46464;51.154;13.812;2022-12-07T13:30:18;98718.31;;;2.61;100.00
39105;BME280;46464;51.154;13.812;2022-12-07T13:32:53;98721.31;;;2.45;100.00
39105;BME280;46464;51.154;13.812;2022-12-07T13:35:34;98725.03;;;2.39;100.00
39105;BME280;46464;51.154;13.812;2022-12-07T13:38:05;98720.78;;;2.31;100.00
39105;BME280;46464;51.154;13.812;2022-12-07T13:40:32;98720.91;;;2.26;100.00
39105;BME280;46464;51.154;13.812;2022-12-07T13:43:03;98715.72;;;2.21;100.00
39105;BME280;46464;51.154;13.812;2022-12-07T13:45:32;98721.03;;;2.21;100.00
39105;BME280;46464;51.154;13.812;2022-12-07T13:48:32;98727.19;;;2.22;100.00
39105;BME280;46464;51.154;13.812;2022-12-07T13:51:01;98721.88;;;2.23;100.00
39105;BME280;46464;51.154;13.812;2022-12-07T13:53:28;98730.69;;;2.24;100.00
39105;BME280;46464;51.154;13.812;2022-12-07T13:55:58;98725.28;;;2.29;100.00
39105;BME280;46464;51.154;13.812;2022-12-07T13:58:27;98739.41;;;2.28;100.00
39105;BME280;46464;51.154;13.812;2022-12-07T14:00:56;98728.72;;;2.32;100.00
39105;BME280;46464;51.154;13.812;2022-12-07T14:03:34;98726.88;;;2.34;100.00
39105;BME280;46464;51.154;13.812;2022-12-07T14:06:18;98729.53;;;2.34;100.00
39105;BME280;46464;51.154;13.812;2022-12-07T14:08:46;98729.53;;;2.34;100.00
39105;BME280;46464;51.154;13.812;2022-12-07T14:11:18;98725.94;;;2.37;100.00
39105;BME280;46464;51.154;13.812;2022-12-07T14:16:36;98732.97;;;2.38;100.00
39105;BME280;46464;51.154;13.812;2022-12-07T14:19:05;98735.72;;;2.35;100.00
39105;BME280;46464;51.154;13.812;2022-12-07T14:21:33;98732.22;;;2.33;100.00
39105;BME280;46464;51.154;13.812;2022-12-07T14:26:37;98735.72;;;2.35;100.00
39105;BME280;46464;51.154;13.812;2022-12-07T14:29:31;98731.28;;;2.35;100.00
39105;BME280;46464;51.154;13.812;2022-12-07T14:32:19;98724.22;;;2.36;100.00
39105;BME280;46464;51.154;13.812;2022-12-07T14:34:54;98720.63;;;2.38;100.00
39105;BME280;46464;51.154;13.812;2022-12-07T14:37:20;98724.22;;;2.34;100.00
39105;BME280;46464;51.154;13.812;2022-12-07T14:39:47;98722.31;;;2.41;100.00
39105;BME280;46464;51.154;13.812;2022-12-07T14:42:13;98722.28;;;2.42;100.00
39105;BME280;46464;51.154;13.812;2022-12-07T14:44:40;98720.56;;;2.40;100.00
39105;BME280;46464;51.154;13.812;2022-12-07T14:47:10;98717.84;;;2.43;100.00
39105;BME280;46464;51.154;13.812;2022-12-07T14:49:56;98714.28;;;2.44;100.00
39105;BME280;46464;51.154;13.812;2022-12-07T14:52:28;98709.03;;;2.42;100.00
39105;BME280;46464;51.154;13.812;2022-12-07T14:55:22;98711.72;;;2.41;100.00
39105;BME280;46464;51.154;13.812;2022-12-07T14:57:50;98716.19;;;2.39;100.00
39105;BME280;46464;51.154;13.812;2022-12-07T15:00:18;98706.53;;;2.36;100.00
39105;BME280;46464;51.154;13.812;2022-12-07T15:02:46;98706.53;;;2.36;100.00
39105;BME280;46464;51.154;13.812;2022-12-07T15:05:14;98720.63;;;2.37;100.00
39105;BME280;46464;51.154;13.812;2022-12-07T15:07:43;98711.81;;;2.36;100.00